sensor_id;sensor_type;location;lat;lon;timestamp;P1;durP1;ratioP1;P2;durP2;ratioP2
23121;SDS011;11730;51.248;22.534;2023-06-19T00:01:08;19.60;;;14.15;;
23121;SDS011;11730;51.248;22.534;2023-06-19T00:03:36;19.25;;;10.90;;
23121;SDS011;11730;51.248;22.534;2023-06-19T00:06:04;16.23;;;10.63;;
23121;SDS011;11730;51.248;22.534;2023-06-19T00:08:32;14.18;;;11.68;;
23121;SDS011;11730;51.248;22.534;2023-06-19T00:10:58;13.40;;;10.80;;
23121;SDS011;11730;51.248;22.534;2023-06-19T00:13:26;12.20;;;10.00;;
23121;SDS011;11730;51.248;22.534;2023-06-19T00:15:53;12.57;;;10.85;;
23121;SDS011;11730;51.248;22.534;2023-06-19T00:18:20;14.93;;;10.55;;
23121;SDS011;11730;51.248;22.534;2023-06-19T00:20:47;12.63;;;10.85;;
23121;SDS011;11730;51.248;22.534;2023-06-19T00:23:14;14.18;;;11.25;;
23121;SDS011;11730;51.248;22.534;2023-06-19T00:25:43;14.23;;;10.70;;
23121;SDS011;11730;51.248;22.534;2023-06-19T00:28:10;12.98;;;10.63;;
23121;SDS011;11730;51.248;22.534;2023-06-19T00:30:41;15.38;;;10.68;;
23121;SDS011;11730;51.248;22.534;2023-06-19T00:33:08;14.07;;;11.40;;
23121;SDS011;11730;51.248;22.534;2023-06-19T00:35:35;15.10;;;11.43;;
23121;SDS011;11730;51.248;22.534;2023-06-19T00:38:03;12.07;;;10.85;;
23121;SDS011;11730;51.248;22.534;2023-06-19T00:40:30;13.40;;;10.48;;
23121;SDS011;11730;51.248;22.534;2023-06-19T00:42:59;15.90;;;11.13;;
23121;SDS011;11730;51.248;22.534;2023-06-19T00:45:26;14.98;;;11.77;;
23121;SDS011;11730;51.248;22.534;2023-06-19T00:47:54;14.98;;;11.93;;
23121;SDS011;11730;51.248;22.534;2023-06-19T00:50:22;14.93;;;11.07;;
23121;SDS011;11730;51.248;22.534;2023-06-19T00:52:50;14.18;;;11.60;;
23121;SDS011;11730;51.248;22.534;2023-06-19T00:55:18;14.43;;;11.75;;
23121;SDS011;11730;51.248;22.534;2023-06-19T00:57:45;14.45;;;11.98;;
23121;SDS011;11730;51.248;22.534;2023-06-19T01:00:13;20.17;;;12.40;;
23121;SDS011;11730;51.248;22.534;2023-06-19T01:02:41;15.48;;;12.30;;
23121;SDS011;11730;51.248;22.534;2023-06-19T01:05:08;14.90;;;12.25;;
23121;SDS011;11730;51.248;22.534;2023-06-19T01:10:31;15.73;;;12.38;;
23121;SDS011;11730;51.248;22.534;2023-06-19T01:13:17;14.88;;;12.75;;
23121;SDS011;11730;51.248;22.534;2023-06-19T01:15:49;17.10;;;12.73;;
23121;SDS011;11730;51.248;22.534;2023-06-19T01:18:16;19.35;;;10.82;;
23121;SDS011;11730;51.248;22.534;2023-06-19T01:20:44;12.60;;;11.10;;
23121;SDS011;11730;51.248;22.534;2023-06-19T01:23:11;14.15;;;11.60;;
23121;SDS011;11730;51.248;22.534;2023-06-19T01:25:38;15.60;;;11.40;;
23121;SDS011;11730;51.248;22.534;2023-06-19T01:28:06;16.88;;;11.55;;
23121;SDS011;11730;51.248;22.534;2023-06-19T01:30:38;16.42;;;11.68;;
23121;SDS011;11730;51.248;22.534;2023-06-19T01:33:10;30.45;;;19.50;;
23121;SDS011;11730;51.248;22.534;2023-06-19T01:35:42;23.25;;;17.92;;
23121;SDS011;11730;51.248;22.534;2023-06-19T01:38:09;19.05;;;12.13;;
23121;SDS011;11730;51.248;22.534;2023-06-19T01:40:38;15.02;;;12.30;;
23121;SDS011;11730;51.248;22.534;2023-06-19T01:43:07;20.45;;;13.13;;
23121;SDS011;11730;51.248;22.534;2023-06-19T01:45:36;18.42;;;14.57;;
23121;SDS011;11730;51.248;22.534;2023-06-19T01:48:03;16.02;;;12.85;;
23121;SDS011;11730;51.248;22.534;2023-06-19T01:50:31;18.63;;;12.40;;
23121;SDS011;11730;51.248;22.534;2023-06-19T01:52:58;16.52;;;12.52;;
23121;SDS011;11730;51.248;22.534;2023-06-19T01:55:26;18.15;;;12.52;;
23121;SDS011;11730;51.248;22.534;2023-06-19T01:57:52;20.27;;;14.15;;
23121;SDS011;11730;51.248;22.534;2023-06-19T02:00:20;16.88;;;13.10;;
23121;SDS011;11730;51.248;22.534;2023-06-19T02:02:47;17.85;;;13.38;;
23121;SDS011;11730;51.248;22.534;2023-06-19T02:05:15;14.57;;;12.40;;
23121;SDS011;11730;51.248;22.534;2023-06-19T02:07:42;16.52;;;12.05;;
23121;SDS011;11730;51.248;22.534;2023-06-19T02:10:09;14.88;;;11.90;;
23121;SDS011;11730;51.248;22.534;2023-06-19T02:12:37;17.35;;;11.85;;
23121;SDS011;11730;51.248;22.534;2023-06-19T02:15:05;15.00;;;12.02;;
23121;SDS011;11730;51.248;22.534;2023-06-19T02:17:32;15.75;;;12.80;;
23121;SDS011;11730;51.248;22.534;2023-06-19T02:19:59;19.02;;;12.55;;
23121;SDS011;11730;51.248;22.534;2023-06-19T02:22:26;15.77;;;12.93;;
23121;SDS011;11730;51.248;22.534;2023-06-19T02:24:54;17.75;;;12.05;;
23121;SDS011;11730;51.248;22.534;2023-06-19T02:27:21;15.02;;;11.73;;
23121;SDS011;11730;51.248;22.534;2023-06-19T02:29:48;18.75;;;12.38;;
23121;SDS011;11730;51.248;22.534;2023-06-19T02:32:15;16.30;;;12.68;;
23121;SDS011;11730;51.248;22.534;2023-06-19T02:34:42;16.52;;;12.30;;
23121;SDS011;11730;51.248;22.534;2023-06-19T02:37:09;13.38;;;11.95;;
23121;SDS011;11730;51.248;22.534;2023-06-19T02:39:36;13.93;;;11.40;;
23121;SDS011;11730;51.248;22.534;2023-06-19T02:42:04;14.50;;;11.68;;
23121;SDS011;11730;51.248;22.534;2023-06-19T02:44:32;15.80;;;10.85;;
23121;SDS011;11730;51.248;22.534;2023-06-19T02:46:59;13.93;;;11.73;;
23121;SDS011;11730;51.248;22.534;2023-06-19T02:49:26;14.85;;;11.13;;
23121;SDS011;11730;51.248;22.534;2023-06-19T02:51:53;13.07;;;10.88;;
23121;SDS011;11730;51.248;22.534;2023-06-19T02:54:20;14.98;;;11.27;;
23121;SDS011;11730;51.248;22.534;2023-06-19T02:56:47;12.93;;;11.25;;
23121;SDS011;11730;51.248;22.534;2023-06-19T02:59:15;13.93;;;10.55;;
23121;SDS011;11730;51.248;22.534;2023-06-19T03:01:42;18.00;;;12.55;;
23121;SDS011;11730;51.248;22.534;2023-06-19T03:04:09;15.57;;;11.73;;
23121;SDS011;11730;51.248;22.534;2023-06-19T03:06:36;13.18;;;10.27;;
23121;SDS011;11730;51.248;22.534;2023-06-19T03:09:06;16.30;;;12.27;;
23121;SDS011;11730;51.248;22.534;2023-06-19T03:11:40;15.07;;;11.30;;
23121;SDS011;11730;51.248;22.534;2023-06-19T03:14:07;14.95;;;10.90;;
23121;SDS011;11730;51.248;22.534;2023-06-19T03:16:35;16.23;;;11.32;;
23121;SDS011;11730;51.248;22.534;2023-06-19T03:19:03;16.25;;;12.10;;
23121;SDS011;11730;51.248;22.534;2023-06-19T03:21:30;21.73;;;13.75;;
23121;SDS011;11730;51.248;22.534;2023-06-19T03:23:57;17.17;;;12.50;;
23121;SDS011;11730;51.248;22.534;2023-06-19T03:26:24;16.88;;;12.52;;
23121;SDS011;11730;51.248;22.534;2023-06-19T03:28:52;16.45;;;12.45;;
23121;SDS011;11730;51.248;22.534;2023-06-19T03:31:19;16.63;;;11.85;;
23121;SDS011;11730;51.248;22.534;2023-06-19T03:33:46;13.23;;;11.18;;
23121;SDS011;11730;51.248;22.534;2023-06-19T03:36:13;13.65;;;11.20;;
23121;SDS011;11730;51.248;22.534;2023-06-19T03:38:40;13.30;;;11.63;;
23121;SDS011;11730;51.248;22.534;2023-06-19T03:41:07;14.25;;;11.35;;
23121;SDS011;11730;51.248;22.534;2023-06-19T03:43:34;17.67;;;11.70;;
23121;SDS011;11730;51.248;22.534;2023-06-19T03:46:01;17.40;;;12.10;;
23121;SDS011;11730;51.248;22.534;2023-06-19T03:48:29;14.80;;;11.63;;
23121;SDS011;11730;51.248;22.534;2023-06-19T03:50:56;18.10;;;13.35;;
23121;SDS011;11730;51.248;22.534;2023-06-19T03:53:23;14.38;;;11.43;;
23121;SDS011;11730;51.248;22.534;2023-06-19T03:55:50;14.93;;;11.30;;
23121;SDS011;11730;51.248;22.534;2023-06-19T03:58:20;18.50;;;11.02;;
23121;SDS011;11730;51.248;22.534;2023-06-19T04:00:47;17.45;;;10.75;;
23121;SDS011;11730;51.248;22.534;2023-06-19T04:03:15;12.15;;;10.30;;
23121;SDS011;11730;51.248;22.534;2023-06-19T04:05:42;16.58;;;10.55;;
23121;SDS011;11730;51.248;22.534;2023-06-19T04:08:09;15.38;;;11.05;;
23121;SDS011;11730;51.248;22.534;2023-06-19T04:10:37;20.17;;;12.18;;
23121;SDS011;11730;51.248;22.534;2023-06-19T04:13:04;13.45;;;11.18;;
23121;SDS011;11730;51.248;22.534;2023-06-19T04:15:33;13.85;;;10.38;;
23121;SDS011;11730;51.248;22.534;2023-06-19T04:18:02;14.85;;;10.48;;
23121;SDS011;11730;51.248;22.534;2023-06-19T04:20:29;12.65;;;10.38;;
23121;SDS011;11730;51.248;22.534;2023-06-19T04:22:56;14.02;;;10.50;;
23121;SDS011;11730;51.248;22.534;2023-06-19T04:25:24;14.02;;;10.25;;
23121;SDS011;11730;51.248;22.534;2023-06-19T04:27:51;12.20;;;9.20;;
23121;SDS011;11730;51.248;22.534;2023-06-19T04:30:18;16.80;;;10.82;;
23121;SDS011;11730;51.248;22.534;2023-06-19T04:32:48;12.60;;;10.32;;
23121;SDS011;11730;51.248;22.534;2023-06-19T04:35:15;12.68;;;10.75;;
23121;SDS011;11730;51.248;22.534;2023-06-19T04:37:44;15.00;;;10.38;;
23121;SDS011;11730;51.248;22.534;2023-06-19T04:40:13;13.80;;;9.65;;
23121;SDS011;11730;51.248;22.534;2023-06-19T04:42:40;11.95;;;10.45;;
23121;SDS011;11730;51.248;22.534;2023-06-19T04:45:07;12.52;;;9.07;;
23121;SDS011;11730;51.248;22.534;2023-06-19T04:47:35;11.85;;;9.13;;
23121;SDS011;11730;51.248;22.534;2023-06-19T04:50:18;16.45;;;10.27;;
23121;SDS011;11730;51.248;22.534;2023-06-19T04:52:46;13.85;;;9.98;;
23121;SDS011;11730;51.248;22.534;2023-06-19T04:55:17;9.32;;;8.13;;
23121;SDS011;11730;51.248;22.534;2023-06-19T04:57:44;9.55;;;8.43;;
23121;SDS011;11730;51.248;22.534;2023-06-19T05:00:11;8.60;;;7.13;;
23121;SDS011;11730;51.248;22.534;2023-06-19T05:02:41;9.07;;;6.90;;
23121;SDS011;11730;51.248;22.534;2023-06-19T05:05:11;9.32;;;6.40;;
23121;SDS011;11730;51.248;22.534;2023-06-19T05:07:38;10.35;;;6.60;;
23121;SDS011;11730;51.248;22.534;2023-06-19T05:10:05;11.40;;;6.78;;
23121;SDS011;11730;51.248;22.534;2023-06-19T05:12:36;8.93;;;6.70;;
23121;SDS011;11730;51.248;22.534;2023-06-19T05:15:03;10.73;;;7.80;;
23121;SDS011;11730;51.248;22.534;2023-06-19T05:17:31;8.98;;;6.75;;
23121;SDS011;11730;51.248;22.534;2023-06-19T05:19:58;11.13;;;7.25;;
23121;SDS011;11730;51.248;22.534;2023-06-19T05:22:26;8.82;;;6.80;;
23121;SDS011;11730;51.248;22.534;2023-06-19T05:24:53;6.13;;;5.40;;
23121;SDS011;11730;51.248;22.534;2023-06-19T05:27:21;10.93;;;8.48;;
23121;SDS011;11730;51.248;22.534;2023-06-19T05:29:48;7.70;;;6.57;;
23121;SDS011;11730;51.248;22.534;2023-06-19T05:32:15;8.82;;;7.68;;
23121;SDS011;11730;51.248;22.534;2023-06-19T05:34:42;7.95;;;6.35;;
23121;SDS011;11730;51.248;22.534;2023-06-19T05:37:09;9.50;;;6.32;;
23121;SDS011;11730;51.248;22.534;2023-06-19T05:39:36;10.20;;;6.75;;
23121;SDS011;11730;51.248;22.534;2023-06-19T05:42:04;6.43;;;5.80;;
23121;SDS011;11730;51.248;22.534;2023-06-19T05:44:31;9.35;;;6.20;;
23121;SDS011;11730;51.248;22.534;2023-06-19T05:46:58;7.68;;;5.68;;
23121;SDS011;11730;51.248;22.534;2023-06-19T05:49:25;7.63;;;6.80;;
23121;SDS011;11730;51.248;22.534;2023-06-19T05:51:52;6.40;;;5.70;;
23121;SDS011;11730;51.248;22.534;2023-06-19T05:54:19;9.77;;;5.80;;
23121;SDS011;11730;51.248;22.534;2023-06-19T05:56:47;10.50;;;7.53;;
23121;SDS011;11730;51.248;22.534;2023-06-19T05:59:16;8.73;;;5.85;;
23121;SDS011;11730;51.248;22.534;2023-06-19T06:01:44;8.88;;;5.95;;
23121;SDS011;11730;51.248;22.534;2023-06-19T06:04:10;7.97;;;6.28;;
23121;SDS011;11730;51.248;22.534;2023-06-19T06:06:38;7.05;;;5.88;;
23121;SDS011;11730;51.248;22.534;2023-06-19T06:09:05;7.35;;;6.38;;
23121;SDS011;11730;51.248;22.534;2023-06-19T06:11:35;10.23;;;6.38;;
23121;SDS011;11730;51.248;22.534;2023-06-19T06:14:03;10.30;;;6.55;;
23121;SDS011;11730;51.248;22.534;2023-06-19T06:16:30;8.43;;;6.15;;
23121;SDS011;11730;51.248;22.534;2023-06-19T06:18:58;6.82;;;6.13;;
23121;SDS011;11730;51.248;22.534;2023-06-19T06:21:25;9.15;;;7.97;;
23121;SDS011;11730;51.248;22.534;2023-06-19T06:23:52;9.52;;;7.05;;
23121;SDS011;11730;51.248;22.534;2023-06-19T06:26:21;7.18;;;5.97;;
23121;SDS011;11730;51.248;22.534;2023-06-19T06:28:47;8.10;;;7.00;;
23121;SDS011;11730;51.248;22.534;2023-06-19T06:31:14;8.00;;;7.20;;
23121;SDS011;11730;51.248;22.534;2023-06-19T06:33:42;11.25;;;7.18;;
23121;SDS011;11730;51.248;22.534;2023-06-19T06:36:09;9.00;;;6.45;;
23121;SDS011;11730;51.248;22.534;2023-06-19T06:38:42;7.53;;;6.50;;
23121;SDS011;11730;51.248;22.534;2023-06-19T06:41:09;8.88;;;6.65;;
23121;SDS011;11730;51.248;22.534;2023-06-19T06:43:36;7.57;;;6.78;;
23121;SDS011;11730;51.248;22.534;2023-06-19T06:46:04;17.58;;;13.23;;
23121;SDS011;11730;51.248;22.534;2023-06-19T06:48:32;10.95;;;6.78;;
23121;SDS011;11730;51.248;22.534;2023-06-19T06:51:00;7.93;;;6.65;;
23121;SDS011;11730;51.248;22.534;2023-06-19T06:53:27;9.40;;;6.82;;
23121;SDS011;11730;51.248;22.534;2023-06-19T06:55:55;7.50;;;6.22;;
23121;SDS011;11730;51.248;22.534;2023-06-19T06:58:22;7.25;;;6.55;;
23121;SDS011;11730;51.248;22.534;2023-06-19T07:00:49;6.80;;;6.10;;
23121;SDS011;11730;51.248;22.534;2023-06-19T07:03:17;9.32;;;6.78;;
23121;SDS011;11730;51.248;22.534;2023-06-19T07:05:44;9.02;;;6.18;;
23121;SDS011;11730;51.248;22.534;2023-06-19T07:08:12;6.47;;;5.75;;
23121;SDS011;11730;51.248;22.534;2023-06-19T07:10:39;8.82;;;6.68;;
23121;SDS011;11730;51.248;22.534;2023-06-19T07:13:07;9.20;;;6.18;;
23121;SDS011;11730;51.248;22.534;2023-06-19T07:15:34;10.43;;;6.43;;
23121;SDS011;11730;51.248;22.534;2023-06-19T07:18:01;12.85;;;7.55;;
23121;SDS011;11730;51.248;22.534;2023-06-19T07:20:28;9.88;;;6.00;;
23121;SDS011;11730;51.248;22.534;2023-06-19T07:22:55;13.23;;;6.60;;
23121;SDS011;11730;51.248;22.534;2023-06-19T07:25:23;7.63;;;6.00;;
23121;SDS011;11730;51.248;22.534;2023-06-19T07:27:51;6.88;;;6.18;;
23121;SDS011;11730;51.248;22.534;2023-06-19T07:30:18;7.82;;;5.68;;
23121;SDS011;11730;51.248;22.534;2023-06-19T07:32:46;7.18;;;6.22;;
23121;SDS011;11730;51.248;22.534;2023-06-19T07:35:14;7.10;;;6.03;;
23121;SDS011;11730;51.248;22.534;2023-06-19T07:37:41;8.07;;;6.47;;
23121;SDS011;11730;51.248;22.534;2023-06-19T07:40:08;13.55;;;6.35;;
23121;SDS011;11730;51.248;22.534;2023-06-19T07:42:36;8.75;;;5.75;;
23121;SDS011;11730;51.248;22.534;2023-06-19T07:45:03;6.80;;;6.07;;
23121;SDS011;11730;51.248;22.534;2023-06-19T07:47:31;8.00;;;6.40;;
23121;SDS011;11730;51.248;22.534;2023-06-19T07:49:58;8.43;;;5.90;;
23121;SDS011;11730;51.248;22.534;2023-06-19T07:52:25;8.00;;;6.43;;
23121;SDS011;11730;51.248;22.534;2023-06-19T07:54:53;9.63;;;8.38;;
23121;SDS011;11730;51.248;22.534;2023-06-19T07:57:21;6.75;;;6.05;;
23121;SDS011;11730;51.248;22.534;2023-06-19T07:59:50;9.43;;;7.47;;
23121;SDS011;11730;51.248;22.534;2023-06-19T08:02:17;10.32;;;6.75;;
23121;SDS011;11730;51.248;22.534;2023-06-19T08:04:45;11.43;;;7.13;;
23121;SDS011;11730;51.248;22.534;2023-06-19T08:07:12;9.15;;;7.30;;
23121;SDS011;11730;51.248;22.534;2023-06-19T08:09:40;7.45;;;6.40;;
23121;SDS011;11730;51.248;22.534;2023-06-19T08:12:07;7.47;;;5.93;;
23121;SDS011;11730;51.248;22.534;2023-06-19T08:14:34;15.45;;;11.50;;
23121;SDS011;11730;51.248;22.534;2023-06-19T08:17:02;6.82;;;6.13;;
23121;SDS011;11730;51.248;22.534;2023-06-19T08:19:29;8.98;;;6.10;;
23121;SDS011;11730;51.248;22.534;2023-06-19T08:21:56;8.70;;;6.10;;
23121;SDS011;11730;51.248;22.534;2023-06-19T08:24:23;6.88;;;6.10;;
23121;SDS011;11730;51.248;22.534;2023-06-19T08:26:51;7.70;;;6.90;;
23121;SDS011;11730;51.248;22.534;2023-06-19T08:29:18;9.18;;;6.30;;
23121;SDS011;11730;51.248;22.534;2023-06-19T08:31:45;6.43;;;5.82;;
23121;SDS011;11730;51.248;22.534;2023-06-19T08:34:12;5.72;;;5.18;;
23121;SDS011;11730;51.248;22.534;2023-06-19T08:36:40;5.57;;;4.47;;
23121;SDS011;11730;51.248;22.534;2023-06-19T08:39:07;5.85;;;4.38;;
23121;SDS011;11730;51.248;22.534;2023-06-19T08:41:36;5.45;;;4.95;;
23121;SDS011;11730;51.248;22.534;2023-06-19T08:44:07;7.80;;;5.03;;
23121;SDS011;11730;51.248;22.534;2023-06-19T08:46:34;6.88;;;4.35;;
23121;SDS011;11730;51.248;22.534;2023-06-19T08:49:04;7.13;;;4.55;;
23121;SDS011;11730;51.248;22.534;2023-06-19T08:51:37;6.90;;;4.78;;
23121;SDS011;11730;51.248;22.534;2023-06-19T08:54:05;5.95;;;4.60;;
23121;SDS011;11730;51.248;22.534;2023-06-19T08:56:33;7.93;;;4.60;;
23121;SDS011;11730;51.248;22.534;2023-06-19T08:59:07;5.70;;;4.50;;
23121;SDS011;11730;51.248;22.534;2023-06-19T09:01:38;6.93;;;4.80;;
23121;SDS011;11730;51.248;22.534;2023-06-19T09:04:10;5.40;;;4.50;;
23121;SDS011;11730;51.248;22.534;2023-06-19T09:06:52;6.78;;;5.38;;
23121;SDS011;11730;51.248;22.534;2023-06-19T09:09:21;5.97;;;4.57;;
23121;SDS011;11730;51.248;22.534;2023-06-19T09:11:59;5.38;;;4.85;;
23121;SDS011;11730;51.248;22.534;2023-06-19T09:17:03;5.85;;;5.28;;
23121;SDS011;11730;51.248;22.534;2023-06-19T09:19:30;5.18;;;4.68;;
23121;SDS011;11730;51.248;22.534;2023-06-19T09:22:02;7.45;;;5.25;;
23121;SDS011;11730;51.248;22.534;2023-06-19T09:27:11;12.20;;;5.95;;
23121;SDS011;11730;51.248;22.534;2023-06-19T09:29:45;6.05;;;4.68;;
23121;SDS011;11730;51.248;22.534;2023-06-19T09:34:49;8.27;;;5.38;;
23121;SDS011;11730;51.248;22.534;2023-06-19T09:37:27;10.75;;;5.28;;
23121;SDS011;11730;51.248;22.534;2023-06-19T09:39:57;7.70;;;5.35;;
23121;SDS011;11730;51.248;22.534;2023-06-19T09:42:30;6.80;;;5.35;;
23121;SDS011;11730;51.248;22.534;2023-06-19T09:45:02;6.90;;;5.32;;
23121;SDS011;11730;51.248;22.534;2023-06-19T09:50:05;7.32;;;4.60;;
23121;SDS011;11730;51.248;22.534;2023-06-19T09:52:33;6.18;;;4.97;;
23121;SDS011;11730;51.248;22.534;2023-06-19T09:55:02;6.55;;;4.60;;
23121;SDS011;11730;51.248;22.534;2023-06-19T09:57:31;5.40;;;4.60;;
23121;SDS011;11730;51.248;22.534;2023-06-19T10:00:00;7.10;;;4.22;;
23121;SDS011;11730;51.248;22.534;2023-06-19T10:02:39;8.65;;;4.10;;
23121;SDS011;11730;51.248;22.534;2023-06-19T10:05:08;6.07;;;4.60;;
23121;SDS011;11730;51.248;22.534;2023-06-19T10:07:44;5.95;;;3.90;;
23121;SDS011;11730;51.248;22.534;2023-06-19T10:10:33;7.63;;;4.15;;
23121;SDS011;11730;51.248;22.534;2023-06-19T10:13:13;10.25;;;5.25;;
23121;SDS011;11730;51.248;22.534;2023-06-19T10:15:42;5.18;;;4.50;;
23121;SDS011;11730;51.248;22.534;2023-06-19T10:18:14;4.95;;;4.40;;
23121;SDS011;11730;51.248;22.534;2023-06-19T10:20:46;9.60;;;8.32;;
23121;SDS011;11730;51.248;22.534;2023-06-19T10:23:15;9.52;;;4.43;;
23121;SDS011;11730;51.248;22.534;2023-06-19T10:33:23;4.60;;;4.10;;
23121;SDS011;11730;51.248;22.534;2023-06-19T10:35:53;4.20;;;3.80;;
23121;SDS011;11730;51.248;22.534;2023-06-19T10:38:20;5.63;;;4.30;;
23121;SDS011;11730;51.248;22.534;2023-06-19T10:40:47;4.10;;;3.75;;
23121;SDS011;11730;51.248;22.534;2023-06-19T10:43:21;5.45;;;3.67;;
23121;SDS011;11730;51.248;22.534;2023-06-19T10:45:51;3.72;;;3.35;;
23121;SDS011;11730;51.248;22.534;2023-06-19T10:48:22;3.75;;;3.40;;
23121;SDS011;11730;51.248;22.534;2023-06-19T10:50:50;4.80;;;4.40;;
23121;SDS011;11730;51.248;22.534;2023-06-19T10:53:25;3.60;;;3.30;;
23121;SDS011;11730;51.248;22.534;2023-06-19T10:56:01;3.40;;;2.95;;
23121;SDS011;11730;51.248;22.534;2023-06-19T10:58:28;6.10;;;2.72;;
23121;SDS011;11730;51.248;22.534;2023-06-19T11:00:56;4.93;;;3.22;;
23121;SDS011;11730;51.248;22.534;2023-06-19T11:03:23;2.88;;;2.42;;
23121;SDS011;11730;51.248;22.534;2023-06-19T11:05:50;8.30;;;4.00;;
23121;SDS011;11730;51.248;22.534;2023-06-19T11:08:18;3.15;;;2.85;;
23121;SDS011;11730;51.248;22.534;2023-06-19T11:10:49;3.17;;;2.67;;
23121;SDS011;11730;51.248;22.534;2023-06-19T11:13:17;6.00;;;2.85;;
23121;SDS011;11730;51.248;22.534;2023-06-19T11:15:46;7.75;;;7.00;;
23121;SDS011;11730;51.248;22.534;2023-06-19T11:18:16;2.55;;;2.33;;
23121;SDS011;11730;51.248;22.534;2023-06-19T11:20:48;4.22;;;2.60;;
23121;SDS011;11730;51.248;22.534;2023-06-19T11:23:26;4.40;;;3.70;;
23121;SDS011;11730;51.248;22.534;2023-06-19T11:26:01;4.47;;;3.78;;
23121;SDS011;11730;51.248;22.534;2023-06-19T11:28:32;10.85;;;9.23;;
23121;SDS011;11730;51.248;22.534;2023-06-19T11:31:00;13.30;;;5.07;;
23121;SDS011;11730;51.248;22.534;2023-06-19T11:33:29;3.60;;;3.00;;
23121;SDS011;11730;51.248;22.534;2023-06-19T11:35:59;8.07;;;3.72;;
23121;SDS011;11730;51.248;22.534;2023-06-19T11:38:27;4.20;;;2.80;;
23121;SDS011;11730;51.248;22.534;2023-06-19T11:40:55;8.15;;;4.10;;
23121;SDS011;11730;51.248;22.534;2023-06-19T11:43:23;4.30;;;2.83;;
23121;SDS011;11730;51.248;22.534;2023-06-19T11:46:04;3.50;;;2.70;;
23121;SDS011;11730;51.248;22.534;2023-06-19T11:48:32;4.95;;;2.50;;
23121;SDS011;11730;51.248;22.534;2023-06-19T11:51:02;4.35;;;3.72;;
23121;SDS011;11730;51.248;22.534;2023-06-19T11:53:29;5.22;;;3.40;;
23121;SDS011;11730;51.248;22.534;2023-06-19T11:55:57;4.30;;;3.55;;
23121;SDS011;11730;51.248;22.534;2023-06-19T11:58:24;7.80;;;4.47;;
23121;SDS011;11730;51.248;22.534;2023-06-19T12:00:52;7.32;;;5.10;;
23121;SDS011;11730;51.248;22.534;2023-06-19T12:03:20;4.22;;;3.83;;
23121;SDS011;11730;51.248;22.534;2023-06-19T12:05:47;4.40;;;2.90;;
23121;SDS011;11730;51.248;22.534;2023-06-19T12:08:15;2.83;;;2.55;;
23121;SDS011;11730;51.248;22.534;2023-06-19T12:10:42;8.25;;;5.65;;
23121;SDS011;11730;51.248;22.534;2023-06-19T12:13:09;4.03;;;2.83;;
23121;SDS011;11730;51.248;22.534;2023-06-19T12:15:36;2.92;;;2.63;;
23121;SDS011;11730;51.248;22.534;2023-06-19T12:18:04;5.72;;;4.50;;
23121;SDS011;11730;51.248;22.534;2023-06-19T12:20:33;4.43;;;4.03;;
23121;SDS011;11730;51.248;22.534;2023-06-19T12:23:00;4.57;;;3.28;;
23121;SDS011;11730;51.248;22.534;2023-06-19T12:25:28;3.47;;;2.22;;
23121;SDS011;11730;51.248;22.534;2023-06-19T12:27:55;2.70;;;2.40;;
23121;SDS011;11730;51.248;22.534;2023-06-19T12:30:22;4.75;;;3.00;;
23121;SDS011;11730;51.248;22.534;2023-06-19T12:32:50;5.18;;;3.70;;
23121;SDS011;11730;51.248;22.534;2023-06-19T12:35:17;10.18;;;7.32;;
23121;SDS011;11730;51.248;22.534;2023-06-19T12:37:44;6.22;;;3.35;;
23121;SDS011;11730;51.248;22.534;2023-06-19T12:40:12;5.05;;;3.00;;
23121;SDS011;11730;51.248;22.534;2023-06-19T12:42:39;6.45;;;2.97;;
23121;SDS011;11730;51.248;22.534;2023-06-19T12:45:06;3.20;;;2.90;;
23121;SDS011;11730;51.248;22.534;2023-06-19T12:47:34;4.63;;;3.45;;
23121;SDS011;11730;51.248;22.534;2023-06-19T12:50:01;4.30;;;3.70;;
23121;SDS011;11730;51.248;22.534;2023-06-19T12:52:28;5.47;;;3.90;;
23121;SDS011;11730;51.248;22.534;2023-06-19T12:54:57;5.60;;;3.95;;
23121;SDS011;11730;51.248;22.534;2023-06-19T12:57:26;6.10;;;4.65;;
23121;SDS011;11730;51.248;22.534;2023-06-19T12:59:53;3.95;;;3.63;;
23121;SDS011;11730;51.248;22.534;2023-06-19T13:02:20;6.50;;;4.32;;
23121;SDS011;11730;51.248;22.534;2023-06-19T13:04:47;8.02;;;5.43;;
23121;SDS011;11730;51.248;22.534;2023-06-19T13:07:15;4.53;;;3.60;;
23121;SDS011;11730;51.248;22.534;2023-06-19T13:09:42;10.82;;;5.85;;
23121;SDS011;11730;51.248;22.534;2023-06-19T13:12:09;6.68;;;5.10;;
23121;SDS011;11730;51.248;22.534;2023-06-19T13:14:36;4.80;;;3.40;;
23121;SDS011;11730;51.248;22.534;2023-06-19T13:17:04;4.00;;;3.60;;
23121;SDS011;11730;51.248;22.534;2023-06-19T13:19:31;4.68;;;3.60;;
23121;SDS011;11730;51.248;22.534;2023-06-19T13:21:58;6.45;;;3.60;;
23121;SDS011;11730;51.248;22.534;2023-06-19T13:24:26;4.88;;;3.88;;
23121;SDS011;11730;51.248;22.534;2023-06-19T13:26:54;4.57;;;4.03;;
23121;SDS011;11730;51.248;22.534;2023-06-19T13:29:21;6.80;;;3.95;;
23121;SDS011;11730;51.248;22.534;2023-06-19T13:31:49;4.50;;;3.50;;
23121;SDS011;11730;51.248;22.534;2023-06-19T13:34:15;4.97;;;3.67;;
23121;SDS011;11730;51.248;22.534;2023-06-19T13:36:44;4.63;;;4.22;;
23121;SDS011;11730;51.248;22.534;2023-06-19T13:39:11;9.45;;;5.18;;
23121;SDS011;11730;51.248;22.534;2023-06-19T13:41:38;7.20;;;4.75;;
23121;SDS011;11730;51.248;22.534;2023-06-19T13:44:05;6.13;;;4.53;;
23121;SDS011;11730;51.248;22.534;2023-06-19T13:46:33;7.97;;;4.93;;
23121;SDS011;11730;51.248;22.534;2023-06-19T13:49:00;8.98;;;6.68;;
23121;SDS011;11730;51.248;22.534;2023-06-19T13:51:27;4.63;;;4.20;;
23121;SDS011;11730;51.248;22.534;2023-06-19T13:53:55;8.90;;;4.60;;
23121;SDS011;11730;51.248;22.534;2023-06-19T13:56:22;5.32;;;4.80;;
23121;SDS011;11730;51.248;22.534;2023-06-19T13:58:49;12.38;;;5.47;;
23121;SDS011;11730;51.248;22.534;2023-06-19T14:01:17;8.98;;;5.72;;
23121;SDS011;11730;51.248;22.534;2023-06-19T14:03:44;6.85;;;6.15;;
23121;SDS011;11730;51.248;22.534;2023-06-19T14:06:12;7.78;;;7.05;;
23121;SDS011;11730;51.248;22.534;2023-06-19T14:08:39;11.60;;;8.40;;
23121;SDS011;11730;51.248;22.534;2023-06-19T14:11:06;15.63;;;9.38;;
23121;SDS011;11730;51.248;22.534;2023-06-19T14:13:33;10.18;;;9.07;;
23121;SDS011;11730;51.248;22.534;2023-06-19T14:16:01;12.63;;;10.13;;
23121;SDS011;11730;51.248;22.534;2023-06-19T14:18:28;21.60;;;17.73;;
23121;SDS011;11730;51.248;22.534;2023-06-19T14:20:55;15.93;;;13.32;;
23121;SDS011;11730;51.248;22.534;2023-06-19T14:23:22;11.25;;;10.07;;
23121;SDS011;11730;51.248;22.534;2023-06-19T14:25:49;12.30;;;11.00;;
23121;SDS011;11730;51.248;22.534;2023-06-19T14:28:16;10.73;;;9.63;;
23121;SDS011;11730;51.248;22.534;2023-06-19T14:30:44;11.90;;;10.70;;
23121;SDS011;11730;51.248;22.534;2023-06-19T14:33:11;10.55;;;9.55;;
23121;SDS011;11730;51.248;22.534;2023-06-19T14:35:42;13.13;;;8.80;;
23121;SDS011;11730;51.248;22.534;2023-06-19T14:38:12;7.53;;;6.50;;
23121;SDS011;11730;51.248;22.534;2023-06-19T14:40:43;7.25;;;6.55;;
23121;SDS011;11730;51.248;22.534;2023-06-19T14:43:10;15.02;;;10.73;;
23121;SDS011;11730;51.248;22.534;2023-06-19T14:45:38;11.48;;;9.60;;
23121;SDS011;11730;51.248;22.534;2023-06-19T14:48:06;10.38;;;9.23;;
23121;SDS011;11730;51.248;22.534;2023-06-19T14:50:34;11.05;;;9.95;;